createdAt,value
2022-12-29T00:04:57.999Z,14
2022-12-29T00:09:58.063Z,14
2022-12-29T00:14:57.962Z,13
2022-12-29T00:19:57.827Z,13
2022-12-29T00:24:57.777Z,13
2022-12-29T00:29:57.873Z,12
2022-12-29T00:34:58.013Z,12
2022-12-29T00:39:57.971Z,12
2022-12-29T00:44:58.014Z,12
2022-12-29T00:49:57.927Z,11
2022-12-29T00:54:58.137Z,11
2022-12-29T00:59:57.691Z,10
2022-12-29T01:04:57.844Z,10
2022-12-29T01:09:57.751Z,10
2022-12-29T01:14:58.119Z,10
2022-12-29T01:19:57.876Z,9
2022-12-29T01:24:57.899Z,9
2022-12-29T01:29:57.805Z,9
2022-12-29T01:34:57.936Z,9
2022-12-29T01:39:58.147Z,9
2022-12-29T01:44:59.880Z,9
2022-12-29T01:49:58.937Z,9
2022-12-29T01:54:57.909Z,9
2022-12-29T01:59:57.668Z,9
2022-12-29T02:05:01.432Z,9
2022-12-29T02:09:58.529Z,9
2022-12-29T02:14:57.752Z,9
2022-12-29T02:19:57.803Z,9
2022-12-29T02:25:06.243Z,9
2022-12-29T02:29:57.747Z,9
2022-12-29T02:34:57.728Z,9
2022-12-29T02:39:57.588Z,9
2022-12-29T02:45:02.442Z,8
2022-12-29T02:49:57.610Z,8
2022-12-29T02:54:57.822Z,8
2022-12-29T02:59:57.897Z,8
2022-12-29T03:04:57.651Z,7
2022-12-29T03:10:01.316Z,7
2022-12-29T03:15:00.028Z,7
2022-12-29T03:19:57.622Z,6
2022-12-29T03:24:59.595Z,6
2022-12-29T03:29:57.756Z,6
2022-12-29T03:34:57.770Z,6
2022-12-29T03:39:57.742Z,6
2022-12-29T03:44:57.570Z,6
2022-12-29T03:49:57.832Z,6
2022-12-29T03:54:57.742Z,6
2022-12-29T03:59:58.031Z,6
2022-12-29T04:04:57.893Z,6
2022-12-29T04:09:57.558Z,6
2022-12-29T04:14:57.425Z,6
2022-12-29T04:19:57.687Z,6
2022-12-29T04:24:57.868Z,6
2022-12-29T04:29:57.699Z,6
2022-12-29T04:34:57.540Z,6
2022-12-29T04:39:57.546Z,6
2022-12-29T04:44:57.451Z,6
2022-12-29T04:49:57.929Z,6
2022-12-29T04:54:57.569Z,6
2022-12-29T04:59:57.718Z,6
2022-12-29T05:04:57.668Z,6
2022-12-29T05:09:57.709Z,6
2022-12-29T05:14:57.654Z,6
2022-12-29T05:19:57.483Z,6
2022-12-29T05:24:57.926Z,6
2022-12-29T05:29:57.597Z,6
2022-12-29T05:34:57.808Z,6
2022-12-29T05:39:57.490Z,6
2022-12-29T05:44:57.541Z,6
2022-12-29T05:49:57.650Z,6
2022-12-29T05:54:57.593Z,6
2022-12-29T05:59:57.659Z,6
2022-12-29T06:04:57.604Z,6
2022-12-29T06:09:57.582Z,6
2022-12-29T06:14:57.448Z,6
2022-12-29T06:19:57.422Z,6
2022-12-29T06:25:03.031Z,6
2022-12-29T06:29:57.545Z,6
2022-12-29T06:34:57.541Z,6
2022-12-29T06:39:57.506Z,6
2022-12-29T06:44:57.774Z,6
2022-12-29T06:49:57.761Z,6
2022-12-29T06:54:57.690Z,6
2022-12-29T06:59:57.767Z,6
2022-12-29T07:04:57.526Z,6
2022-12-29T07:09:57.859Z,6
2022-12-29T07:14:57.544Z,6
2022-12-29T07:19:57.762Z,6
2022-12-29T07:24:57.881Z,6
2022-12-29T07:29:57.699Z,6
2022-12-29T07:34:57.762Z,6
2022-12-29T07:39:57.929Z,6
2022-12-29T07:44:57.382Z,6
2022-12-29T07:49:57.478Z,6
2022-12-29T07:54:57.840Z,6
2022-12-29T07:59:57.634Z,6
2022-12-29T08:04:57.507Z,6
2022-12-29T08:09:57.483Z,6
2022-12-29T08:14:57.616Z,6
2022-12-29T08:19:57.518Z,6
2022-12-29T08:24:57.573Z,6
2022-12-29T08:29:57.324Z,6
2022-12-29T08:34:57.549Z,6
2022-12-29T08:39:57.468Z,6
2022-12-29T08:44:57.433Z,6
2022-12-29T08:49:57.675Z,6
2022-12-29T08:54:57.428Z,7
2022-12-29T08:59:57.575Z,7
2022-12-29T09:04:57.661Z,7
2022-12-29T09:09:57.354Z,7
2022-12-29T09:14:57.345Z,7
2022-12-29T09:19:57.402Z,7
2022-12-29T09:24:57.550Z,7
2022-12-29T09:29:57.378Z,7
2022-12-29T09:34:57.429Z,7
2022-12-29T09:39:57.560Z,7
2022-12-29T09:45:03.580Z,7
2022-12-29T09:50:01.081Z,7
2022-12-29T09:55:02.381Z,7
2022-12-29T10:00:00.891Z,7
2022-12-29T10:04:57.859Z,7
2022-12-29T10:10:01.681Z,7
2022-12-29T10:14:57.391Z,7
2022-12-29T10:19:57.449Z,7
2022-12-29T10:24:57.422Z,7
2022-12-29T10:29:57.183Z,7
2022-12-29T10:34:57.377Z,7
2022-12-29T10:39:58.340Z,7
2022-12-29T10:44:58.842Z,7
2022-12-29T10:49:57.978Z,8
2022-12-29T10:54:59.476Z,8
2022-12-29T10:59:58.145Z,8
2022-12-29T11:04:57.143Z,9
2022-12-29T11:10:16.976Z,9
2022-12-29T11:15:01.714Z,10
2022-12-29T11:19:57.458Z,10
2022-12-29T11:24:57.439Z,9
2022-12-29T11:29:57.632Z,10
2022-12-29T11:34:58.105Z,10
2022-12-29T11:39:57.342Z,10
2022-12-29T11:44:57.285Z,10
2022-12-29T11:49:57.280Z,10
2022-12-29T11:54:57.529Z,10
2022-12-29T11:59:57.761Z,10
2022-12-29T12:04:57.468Z,10
2022-12-29T12:10:03.148Z,10
2022-12-29T12:14:58.790Z,10
2022-12-29T12:19:57.448Z,10
2022-12-29T12:24:57.232Z,10
2022-12-29T12:29:59.594Z,10
2022-12-29T12:34:57.408Z,10
2022-12-29T12:39:57.227Z,10
2022-12-29T12:45:19.037Z,10
2022-12-29T12:50:03.580Z,10
2022-12-29T12:55:03.239Z,10
2022-12-29T13:00:00.789Z,10
2022-12-29T13:04:57.286Z,10
2022-12-29T13:10:02.530Z,10
2022-12-29T13:15:02.026Z,10
2022-12-29T13:19:57.438Z,9
2022-12-29T13:24:57.316Z,9
2022-12-29T13:30:00.566Z,9
2022-12-29T13:34:57.371Z,9
2022-12-29T13:40:02.488Z,9
2022-12-29T13:44:57.244Z,9
2022-12-29T13:49:58.590Z,9
2022-12-29T13:55:00.661Z,9
2022-12-29T13:59:57.279Z,9
2022-12-29T14:04:58.892Z,9
2022-12-29T14:09:57.142Z,9
2022-12-29T14:14:57.319Z,9
2022-12-29T14:19:57.339Z,8
2022-12-29T14:24:57.202Z,8
2022-12-29T14:29:58.271Z,8
2022-12-29T14:34:57.220Z,8
2022-12-29T14:39:57.202Z,7
2022-12-29T14:44:57.213Z,7
2022-12-29T14:50:03.118Z,7
2022-12-29T14:54:57.032Z,7
2022-12-29T14:59:57.178Z,7
2022-12-29T15:04:59.259Z,7
2022-12-29T15:09:57.312Z,7
2022-12-29T15:14:58.800Z,7
2022-12-29T15:19:57.337Z,8
2022-12-29T15:24:57.067Z,8
2022-12-29T15:29:57.269Z,7
2022-12-29T15:34:57.143Z,8
2022-12-29T15:39:57.604Z,8
2022-12-29T15:45:09.377Z,8
2022-12-29T15:50:01.326Z,8
2022-12-29T15:54:58.047Z,8
2022-12-29T15:59:57.185Z,8
2022-12-29T16:09:58.161Z,8
2022-12-29T16:14:56.971Z,8
2022-12-29T16:19:57.070Z,8
2022-12-29T16:25:04.232Z,8
2022-12-29T16:29:56.938Z,8
2022-12-29T16:34:57.174Z,8
2022-12-29T16:40:22.491Z,8
2022-12-29T16:45:06.210Z,8
2022-12-29T16:50:12.146Z,8
2022-12-29T16:54:58.879Z,8
2022-12-29T16:59:57.143Z,8
2022-12-29T17:04:57.190Z,8
2022-12-29T17:09:57.368Z,8
2022-12-29T17:14:57.133Z,8
2022-12-29T17:19:57.068Z,8
2022-12-29T17:24:56.995Z,8
2022-12-29T17:29:58.822Z,8
2022-12-29T17:34:57.133Z,8
2022-12-29T17:39:57.073Z,8
2022-12-29T17:44:57.166Z,8
2022-12-29T17:49:57.457Z,8
2022-12-29T17:54:57.405Z,8
2022-12-29T17:59:56.888Z,8
2022-12-29T18:04:57.157Z,8
2022-12-29T18:09:57.272Z,8
2022-12-29T18:14:57.586Z,8
2022-12-29T18:19:57.498Z,8
2022-12-29T18:24:56.992Z,8
2022-12-29T18:29:57.399Z,8
2022-12-29T18:34:57.149Z,8
2022-12-29T18:39:57.176Z,8
2022-12-29T18:44:56.983Z,9
2022-12-29T18:49:56.967Z,9
2022-12-29T18:54:56.925Z,9
2022-12-29T18:59:57.074Z,9
2022-12-29T19:05:03.429Z,9
2022-12-29T19:09:57.201Z,9
2022-12-29T19:14:56.954Z,10
2022-12-29T19:19:57.002Z,10
2022-12-29T19:25:00.193Z,10
2022-12-29T19:29:57.180Z,10
2022-12-29T19:34:56.970Z,10
2022-12-29T19:39:57.101Z,10
2022-12-29T19:44:57.083Z,10
2022-12-29T19:49:56.840Z,10
2022-12-29T19:54:56.848Z,10
2022-12-29T19:59:57.592Z,10
2022-12-29T20:04:56.852Z,11
2022-12-29T20:09:56.811Z,11
2022-12-29T20:14:57.041Z,11
2022-12-29T20:19:56.875Z,11
2022-12-29T20:25:26.017Z,11
2022-12-29T20:29:57.036Z,11
2022-12-29T20:34:57.426Z,12
2022-12-29T20:39:57.224Z,12
2022-12-29T20:44:56.860Z,12
2022-12-29T20:49:56.880Z,11
2022-12-29T20:54:56.732Z,11
2022-12-29T20:59:56.883Z,12
2022-12-29T21:05:22.834Z,12
2022-12-29T21:09:57.119Z,12
2022-12-29T21:14:56.888Z,12
2022-12-29T21:19:57.094Z,12
2022-12-29T21:24:56.988Z,12
2022-12-29T21:29:57.079Z,12
2022-12-29T21:34:56.909Z,12
2022-12-29T21:39:56.755Z,12
2022-12-29T21:44:56.966Z,12
2022-12-29T21:49:57.040Z,12
2022-12-29T21:54:56.618Z,12
2022-12-29T21:59:56.829Z,12
2022-12-29T22:04:56.770Z,12
2022-12-29T22:09:56.878Z,12
2022-12-29T22:14:56.837Z,12
2022-12-29T22:19:56.719Z,12
2022-12-29T22:24:56.978Z,11
2022-12-29T22:29:56.728Z,12
2022-12-29T22:34:56.880Z,12
2022-12-29T22:39:56.861Z,12
2022-12-29T22:44:56.603Z,12
2022-12-29T22:49:56.917Z,11
2022-12-29T22:55:01.682Z,11
2022-12-29T22:59:56.773Z,11
2022-12-29T23:05:03.376Z,11
2022-12-29T23:09:56.687Z,11
2022-12-29T23:14:56.600Z,11
2022-12-29T23:19:56.789Z,11
2022-12-29T23:24:56.824Z,11
2022-12-29T23:29:57.147Z,11
2022-12-29T23:34:56.789Z,11
2022-12-29T23:39:57.111Z,11
2022-12-29T23:44:56.739Z,11
2022-12-29T23:49:56.913Z,11
2022-12-29T23:54:56.834Z,10
2022-12-29T23:59:56.796Z,10
